Time;durP1;ratioP1;P1;durP2;ratioP2;P2;SDS_P1;SDS_P2;PMS_P1;PMS_P2;Temp;Humidity;BMP_temperature;BMP_pressure;BME280_temperature;BME280_humidity;BME280_pressure;Samples;Min_cycle;Max_cycle;Signal;HPM_P1;HPM_P2
2024/03/21 00:00:30;;;;;;;7.45;4.28;;;;;;;6.63;100.00;97524.94;5063664;28;20097;-60
2024/03/21 00:02:56;;;;;;;5.75;3.67;;;;;;;6.63;100.00;97526.81;5056758;28;20054;-60
2024/03/21 00:05:22;;;;;;;9.38;4.20;;;;;;;6.55;100.00;97521.72;5059022;28;20041;-60
2024/03/21 00:07:49;;;;;;;7.03;3.72;;;;;;;6.49;100.00;97513.50;5059631;28;20685;-60
2024/03/21 00:10:21;;;;;;;8.98;3.90;;;;;;;6.50;100.00;97520.50;5061255;28;20043;-59
2024/03/21 00:12:48;;;;;;;9.75;4.03;;;;;;;6.47;100.00;97510.22;5052763;28;20451;-60
2024/03/21 00:15:15;;;;;;;8.23;4.30;;;;;;;6.44;100.00;97516.03;5062701;28;20036;-58
2024/03/21 00:17:42;;;;;;;8.88;4.32;;;;;;;6.37;100.00;97513.41;5062865;28;20448;-57
2024/03/21 00:20:10;;;;;;;8.10;4.30;;;;;;;6.33;100.00;97509.50;5061771;28;20044;-60
2024/03/21 00:22:37;;;;;;;7.25;4.65;;;;;;;6.30;100.00;97514.53;5060823;28;20040;-59
2024/03/21 00:25:03;;;;;;;7.20;4.32;;;;;;;6.30;100.00;97511.84;5062941;28;20037;-60
2024/03/21 00:27:31;;;;;;;11.65;4.20;;;;;;;6.30;100.00;97507.25;5062740;28;20060;-59
2024/03/21 00:29:57;;;;;;;6.13;3.70;;;;;;;6.35;100.00;97506.59;5060424;28;20089;-60
2024/03/21 00:32:22;;;;;;;7.28;4.10;;;;;;;6.39;100.00;97505.13;5065259;28;20039;-60
2024/03/21 00:34:48;;;;;;;7.15;4.07;;;;;;;6.40;100.00;97503.22;5065006;28;20029;-60
2024/03/21 00:37:13;;;;;;;8.70;3.97;;;;;;;6.33;100.00;97498.75;5061797;28;20100;-59
2024/03/21 00:39:42;;;;;;;7.07;3.90;;;;;;;6.29;100.00;97497.56;5060776;28;20128;-58
2024/03/21 00:42:09;;;;;;;7.68;4.25;;;;;;;6.28;100.00;97498.59;5054747;28;20044;-60
2024/03/21 00:44:35;;;;;;;9.85;4.20;;;;;;;6.26;100.00;97495.28;5069033;28;20032;-59
2024/03/21 00:47:01;;;;;;;6.93;3.58;;;;;;;6.29;100.00;97494.88;5058240;28;20041;-58
2024/03/21 00:49:26;;;;;;;8.13;4.65;;;;;;;6.29;100.00;97496.72;5059983;28;20090;-59
2024/03/21 00:51:52;;;;;;;9.25;4.20;;;;;;;6.32;100.00;97499.81;5070084;28;20119;-58
2024/03/21 00:54:17;;;;;;;9.85;4.88;;;;;;;6.42;100.00;97498.47;5061177;28;20205;-59
2024/03/21 00:56:43;;;;;;;11.35;5.00;;;;;;;6.45;100.00;97498.84;5064204;28;20037;-59
2024/03/21 00:59:08;;;;;;;7.55;4.07;;;;;;;6.43;100.00;97494.72;5062892;28;20771;-60
2024/03/21 01:01:34;;;;;;;8.45;3.83;;;;;;;6.45;100.00;97498.84;5058573;28;20049;-60
2024/03/21 01:03:59;;;;;;;7.15;3.97;;;;;;;6.48;100.00;97498.41;5063194;28;20028;-60
2024/03/21 01:06:25;;;;;;;8.65;3.95;;;;;;;6.56;100.00;97499.97;5062913;28;20462;-60
2024/03/21 01:08:51;;;;;;;6.60;4.35;;;;;;;6.62;100.00;97498.25;5063358;28;20037;-60
2024/03/21 01:11:17;;;;;;;7.05;3.75;;;;;;;6.68;100.00;97499.25;5057736;28;20040;-60
2024/03/21 01:13:42;;;;;;;8.10;4.05;;;;;;;6.62;100.00;97503.66;5055934;28;20435;-60
2024/03/21 01:16:08;;;;;;;8.27;4.03;;;;;;;6.60;100.00;97497.69;5070517;28;20574;-59
2024/03/21 01:18:38;;;;;;;7.40;3.58;;;;;;;6.61;100.00;97497.47;5057043;28;20093;-60
2024/03/21 01:21:05;;;;;;;6.05;3.70;;;;;;;6.64;100.00;97498.88;5055091;28;20477;-60
2024/03/21 01:23:32;;;;;;;11.07;4.45;;;;;;;6.66;100.00;97495.97;5062740;28;20097;-59
2024/03/21 01:25:58;;;;;;;6.45;3.45;;;;;;;6.70;100.00;97486.38;5056732;28;20044;-60
2024/03/21 01:28:24;;;;;;;6.97;3.92;;;;;;;6.67;100.00;97489.53;5059231;28;20078;-58
2024/03/21 01:30:50;;;;;;;7.70;4.38;;;;;;;6.64;100.00;97486.22;5060840;28;20088;-58
2024/03/21 01:33:16;;;;;;;6.60;4.10;;;;;;;6.59;100.00;97483.41;5066009;28;20062;-60
2024/03/21 01:35:42;;;;;;;8.93;4.57;;;;;;;6.59;100.00;97490.63;5062420;28;20040;-59
2024/03/21 01:38:07;;;;;;;8.85;4.47;;;;;;;6.52;100.00;97477.25;5052780;28;20051;-60
2024/03/21 01:40:33;;;;;;;6.22;4.60;;;;;;;6.46;100.00;97478.16;5066186;28;20048;-58
2024/03/21 01:42:59;;;;;;;5.95;3.83;;;;;;;6.37;100.00;97483.81;5060149;28;20033;-59
2024/03/21 01:45:27;;;;;;;8.75;4.57;;;;;;;6.34;100.00;97473.50;5057708;28;20044;-58
2024/03/21 01:47:52;;;;;;;6.38;4.07;;;;;;;6.45;100.00;97473.84;5065520;28;20040;-60
2024/03/21 01:50:18;;;;;;;6.47;4.22;;;;;;;6.49;100.00;97481.22;5065408;28;20059;-58
2024/03/21 01:52:44;;;;;;;8.85;4.18;;;;;;;6.59;100.00;97482.56;5068215;28;20535;-60
2024/03/21 01:55:14;;;;;;;9.07;4.35;;;;;;;6.61;100.00;97477.78;5051548;28;20045;-60
2024/03/21 01:57:40;;;;;;;7.28;4.30;;;;;;;6.55;100.00;97468.75;5062303;28;20052;-59
2024/03/21 02:00:08;;;;;;;8.52;4.30;;;;;;;6.57;100.00;97472.06;5056958;28;20538;-60
2024/03/21 02:02:35;;;;;;;6.70;3.92;;;;;;;6.64;100.00;97483.53;5060923;28;20044;-57
2024/03/21 02:05:04;;;;;;;7.07;4.70;;;;;;;6.76;100.00;97464.81;5073509;28;20082;-60
2024/03/21 02:07:34;;;;;;;7.00;4.45;;;;;;;6.87;100.00;97465.91;5057879;28;20087;-59
2024/03/21 02:09:59;;;;;;;8.70;4.78;;;;;;;6.98;100.00;97463.50;5059699;28;20051;-59
2024/03/21 02:12:46;;;;;;;6.40;4.10;;;;;;;7.19;100.00;97472.16;5059737;28;20044;-59
2024/03/21 02:15:12;;;;;;;7.55;3.97;;;;;;;7.32;100.00;97469.25;5051544;28;20044;-58
2024/03/21 02:17:39;;;;;;;8.75;4.78;;;;;;;7.39;100.00;97469.19;5054113;28;20037;-58
2024/03/21 02:20:06;;;;;;;5.63;3.90;;;;;;;7.39;100.00;97478.09;5050730;28;20071;-59
2024/03/21 02:22:37;;;;;;;6.65;4.50;;;;;;;7.42;100.00;97472.22;5042154;28;20045;-59
2024/03/21 02:25:09;;;;;;;7.55;3.60;;;;;;;7.54;100.00;97476.84;5051059;28;20604;-60
2024/03/21 02:27:36;;;;;;;8.48;4.40;;;;;;;7.52;100.00;97470.88;5063264;28;20032;-60
2024/03/21 02:30:02;;;;;;;6.93;4.22;;;;;;;7.58;100.00;97474.50;5054848;28;20044;-60
2024/03/21 02:32:28;;;;;;;6.43;3.78;;;;;;;7.53;100.00;97475.19;5059761;28;20059;-60
2024/03/21 02:34:54;;;;;;;7.47;3.80;;;;;;;7.54;100.00;97474.13;5054871;28;20584;-60
2024/03/21 02:37:20;;;;;;;6.95;3.85;;;;;;;7.55;100.00;97473.09;5062666;28;20061;-60
2024/03/21 02:39:52;;;;;;;7.13;4.05;;;;;;;7.57;100.00;97468.31;5055369;28;20186;-59
2024/03/21 02:42:21;;;;;;;8.55;3.95;;;;;;;7.59;100.00;97476.16;5053778;28;20094;-60
2024/03/21 02:44:48;;;;;;;8.38;4.03;;;;;;;7.63;100.00;97478.16;5063426;28;20024;-60
2024/03/21 02:47:15;;;;;;;9.15;4.15;;;;;;;7.67;100.00;97482.03;5061073;28;20482;-60
2024/03/21 02:49:41;;;;;;;6.15;4.00;;;;;;;7.67;100.00;97478.53;5057616;28;20039;-60
2024/03/21 02:52:06;;;;;;;7.93;4.60;;;;;;;7.67;100.00;97482.03;5052125;28;20048;-60
2024/03/21 02:54:32;;;;;;;6.97;3.88;;;;;;;7.71;100.00;97478.88;5054811;28;20528;-59
2024/03/21 02:56:59;;;;;;;5.47;3.58;;;;;;;7.71;100.00;97487.78;5049408;28;20255;-60
2024/03/21 02:59:25;;;;;;;8.52;4.28;;;;;;;7.70;100.00;97488.03;5073430;28;20722;-60
2024/03/21 03:01:51;;;;;;;6.75;3.92;;;;;;;7.64;100.00;97490.59;5050593;28;20045;-60
2024/03/21 03:04:16;;;;;;;6.15;3.83;;;;;;;7.62;100.00;97492.69;5068482;28;20047;-60
2024/03/21 03:06:42;;;;;;;6.15;3.80;;;;;;;7.65;100.00;97491.41;5063456;28;20424;-60
2024/03/21 03:09:08;;;;;;;8.63;3.85;;;;;;;7.70;100.00;97493.41;5057947;28;20086;-60
2024/03/21 03:11:36;;;;;;;6.65;3.47;;;;;;;7.66;100.00;97482.25;5055233;28;20040;-60
2024/03/21 03:14:02;;;;;;;8.02;4.18;;;;;;;7.70;100.00;97488.03;5061716;28;20037;-60
2024/03/21 03:16:27;;;;;;;7.38;4.10;;;;;;;7.71;100.00;97495.88;5064811;28;20090;-58
2024/03/21 03:18:53;;;;;;;6.80;4.15;;;;;;;7.71;100.00;97503.97;5061081;28;20097;-60
2024/03/21 03:21:18;;;;;;;8.02;3.80;;;;;;;7.68;100.00;97499.84;5055042;28;20048;-59
2024/03/21 03:23:44;;;;;;;5.65;3.50;;;;;;;7.70;100.00;97498.81;5062819;28;20040;-60
2024/03/21 03:26:09;;;;;;;7.85;4.10;;;;;;;7.77;100.00;97504.91;5053350;28;20123;-59
2024/03/21 03:28:35;;;;;;;5.55;3.45;;;;;;;7.80;100.00;97501.75;5061632;28;20734;-57
2024/03/21 03:31:01;;;;;;;6.78;3.33;;;;;;;7.86;100.00;97510.78;5072010;28;20213;-59
2024/03/21 03:36:11;;;;;;;5.22;3.22;;;;;;;8.06;100.00;97508.59;5068310;28;20040;-59
2024/03/21 03:38:36;;;;;;;4.95;2.83;;;;;;;8.11;100.00;97515.19;5063241;28;20487;-59
2024/03/21 03:41:02;;;;;;;4.80;2.97;;;;;;;8.10;100.00;97508.16;5055168;28;20073;-59
2024/03/21 03:43:27;;;;;;;4.97;2.50;;;;;;;8.10;100.00;97511.66;5063311;28;20036;-60
2024/03/21 03:45:53;;;;;;;5.90;2.78;;;;;;;8.11;100.00;97515.19;5050513;28;20139;-59
2024/03/21 03:48:19;;;;;;;7.63;3.35;;;;;;;8.11;100.00;97526.78;5059443;28;20040;-59
2024/03/21 03:50:44;;;;;;;6.95;3.05;;;;;;;8.05;100.00;97516.94;5059316;28;20460;-59
2024/03/21 03:53:10;;;;;;;7.05;3.13;;;;;;;7.98;100.00;97513.50;5061524;28;20040;-59
2024/03/21 03:55:35;;;;;;;5.65;2.90;;;;;;;7.92;100.00;97508.00;5052512;28;20044;-60
2024/03/21 03:58:01;;;;;;;5.50;3.40;;;;;;;7.89;100.00;97513.03;5055767;28;20040;-60
2024/03/21 04:00:27;;;;;;;5.18;2.75;;;;;;;7.92;100.00;97516.06;5060687;28;20073;-60
2024/03/21 04:02:52;;;;;;;7.47;2.80;;;;;;;7.95;100.00;97517.50;5061221;28;20078;-60
2024/03/21 04:05:18;;;;;;;6.18;2.72;;;;;;;7.96;100.00;97521.00;5062199;28;20040;-60
2024/03/21 04:07:45;;;;;;;4.20;2.40;;;;;;;7.96;100.00;97524.50;5053874;28;20496;-60
2024/03/21 04:10:11;;;;;;;3.88;2.00;;;;;;;8.02;100.00;97520.06;5060384;28;20055;-60
2024/03/21 04:12:36;;;;;;;6.30;2.42;;;;;;;7.99;100.00;97521.38;5068912;28;20518;-60
2024/03/21 04:15:03;;;;;;;4.93;2.60;;;;;;;8.03;100.00;97521.72;5060831;28;20593;-59
2024/03/21 04:17:28;;;;;;;5.40;2.92;;;;;;;8.09;100.00;97515.41;5059446;28;20045;-60
2024/03/21 04:19:54;;;;;;;4.88;2.38;;;;;;;7.93;100.00;97515.03;5053874;28;20041;-60
2024/03/21 04:22:19;;;;;;;6.20;3.03;;;;;;;7.72;100.00;97518.25;5062445;28;20072;-59
2024/03/21 04:24:47;;;;;;;4.68;2.88;;;;;;;7.57;100.00;97515.97;5063235;28;20043;-60
2024/03/21 04:27:13;;;;;;;6.65;3.40;;;;;;;7.52;100.00;97520.19;5062803;28;20090;-60
2024/03/21 04:29:39;;;;;;;4.93;3.22;;;;;;;7.54;100.00;97522.63;5059072;28;20801;-60
2024/03/21 04:32:05;;;;;;;5.80;3.13;;;;;;;7.51;100.00;97526.63;5057573;28;20043;-60
2024/03/21 04:34:30;;;;;;;5.80;2.95;;;;;;;7.53;100.00;97529.09;5050270;28;20040;-60
2024/03/21 04:36:56;;;;;;;5.60;3.20;;;;;;;7.59;100.00;97533.56;5062295;28;20593;-59
2024/03/21 04:39:22;;;;;;;5.07;3.38;;;;;;;7.64;100.00;97530.19;5074518;28;20048;-60
2024/03/21 04:41:47;;;;;;;4.82;2.90;;;;;;;7.70;100.00;97533.84;5066102;28;20072;-59
2024/03/21 04:44:13;;;;;;;6.95;3.22;;;;;;;7.75;100.00;97533.97;5034465;28;20033;-60
2024/03/21 04:46:39;;;;;;;9.73;3.90;;;;;;;7.77;100.00;97530.00;5067449;28;20155;-60
2024/03/21 04:49:04;;;;;;;5.05;3.10;;;;;;;7.79;100.00;97540.53;5058869;28;20037;-60
2024/03/21 04:51:30;;;;;;;7.15;2.83;;;;;;;7.80;100.00;97542.19;5054734;28;20548;-60
2024/03/21 04:53:55;;;;;;;7.03;3.22;;;;;;;7.86;100.00;97546.66;5069762;28;20033;-60
2024/03/21 04:56:21;;;;;;;7.40;2.85;;;;;;;7.85;100.00;97544.19;5058449;28;20307;-60
2024/03/21 04:58:48;;;;;;;5.35;2.70;;;;;;;7.83;100.00;97541.72;5065509;28;20526;-58
2024/03/21 05:01:13;;;;;;;5.85;3.70;;;;;;;7.80;100.00;97540.31;5055297;28;20044;-60
2024/03/21 05:03:39;;;;;;;6.30;3.17;;;;;;;7.82;100.00;97545.47;5060096;28;20036;-58
2024/03/21 05:06:04;;;;;;;5.57;3.38;;;;;;;7.81;100.00;97541.97;5054240;28;20041;-60
2024/03/21 05:08:30;;;;;;;8.65;3.80;;;;;;;7.76;100.00;97535.59;5065387;28;20074;-60
2024/03/21 05:10:55;;;;;;;5.85;3.83;;;;;;;7.76;100.00;97543.69;5059652;28;20033;-59
2024/03/21 05:13:21;;;;;;;9.20;3.70;;;;;;;7.79;100.00;97538.69;5055643;28;20037;-59
2024/03/21 05:15:48;;;;;;;7.22;4.07;;;;;;;7.87;100.00;97550.16;5063556;28;20522;-59
2024/03/21 05:18:14;;;;;;;7.93;4.00;;;;;;;7.99;100.00;97542.13;5065465;28;20511;-59
2024/03/21 05:20:40;;;;;;;7.72;4.35;;;;;;;8.03;100.00;97541.44;5061168;28;20078;-59
2024/03/21 05:23:05;;;;;;;7.65;3.75;;;;;;;8.08;100.00;97546.13;5061260;28;20078;-60
2024/03/21 05:25:33;;;;;;;7.32;3.92;;;;;;;8.16;100.00;97544.97;5056368;28;20052;-60
2024/03/21 05:27:59;;;;;;;10.68;4.63;;;;;;;8.20;100.00;97541.59;5055092;28;20044;-60
2024/03/21 05:30:25;;;;;;;8.15;4.72;;;;;;;8.23;100.00;97536.78;5066675;28;20062;-60
2024/03/21 05:32:50;;;;;;;10.40;5.68;;;;;;;8.26;100.00;97542.50;5064408;28;20040;-60
2024/03/21 05:35:17;;;;;;;12.95;6.65;;;;;;;8.25;100.00;97537.38;5054468;28;20067;-60
2024/03/21 05:37:42;;;;;;;12.05;6.68;;;;;;;8.24;100.00;97544.63;5058055;28;20045;-60
2024/03/21 05:40:09;;;;;;;10.93;6.43;;;;;;;8.25;100.00;97540.06;5053736;28;20213;-60
2024/03/21 05:42:35;;;;;;;10.07;5.78;;;;;;;8.25;100.00;97540.88;5060099;28;20044;-60
2024/03/21 05:45:00;;;;;;;14.30;5.47;;;;;;;8.29;100.00;97549.34;5056606;28;20044;-60
2024/03/21 05:47:26;;;;;;;8.70;4.90;;;;;;;8.35;100.00;97547.56;5052217;28;20085;-59
2024/03/21 05:49:52;;;;;;;10.77;5.55;;;;;;;8.42;100.00;97546.41;5052960;28;20049;-59
2024/03/21 05:52:17;;;;;;;9.82;5.38;;;;;;;8.50;100.00;97547.94;5062381;28;20079;-58
2024/03/21 05:54:50;;;;;;;10.23;5.30;;;;;;;8.55;100.00;97553.47;5044271;28;20045;-59
2024/03/21 05:57:15;;;;;;;10.10;5.82;;;;;;;8.52;100.00;97553.91;5061016;28;20742;-59
2024/03/21 05:59:41;;;;;;;11.05;5.47;;;;;;;8.53;100.00;97555.59;5063195;28;20070;-64
2024/03/21 06:02:08;;;;;;;9.70;5.57;;;;;;;8.56;100.00;97554.31;5060689;28;20490;-64
2024/03/21 06:04:34;;;;;;;7.95;4.60;;;;;;;8.55;100.00;97563.47;5066876;28;20075;-64
2024/03/21 06:06:59;;;;;;;6.97;3.95;;;;;;;8.53;100.00;97561.00;5061675;28;20052;-64
2024/03/21 06:09:25;;;;;;;6.43;3.92;;;;;;;8.56;100.00;97567.81;5050313;28;20820;-64
2024/03/21 06:11:51;;;;;;;7.28;3.60;;;;;;;8.58;100.00;97566.50;5046766;28;20036;-64
2024/03/21 06:14:16;;;;;;;7.82;3.30;;;;;;;8.63;100.00;97570.38;5057645;28;20496;-66
2024/03/21 06:16:42;;;;;;;5.85;3.13;;;;;;;8.74;100.00;97572.28;5051204;28;20071;-64
2024/03/21 06:19:08;;;;;;;9.52;3.90;;;;;;;8.82;100.00;97584.59;5059148;28;20578;-64
2024/03/21 06:21:33;;;;;;;5.45;3.03;;;;;;;8.91;100.00;97585.88;5046356;28;20040;-64
2024/03/21 06:23:59;;;;;;;5.25;2.97;;;;;;;8.97;100.00;97586.81;5053418;28;20115;-64
2024/03/21 06:26:24;;;;;;;6.72;3.72;;;;;;;9.08;100.00;97591.41;5058943;28;20048;-64
2024/03/21 06:28:50;;;;;;;7.55;3.53;;;;;;;9.21;100.00;97597.56;5051900;28;20037;-63
2024/03/21 06:31:15;;;;;;;6.55;2.90;;;;;;;9.33;100.00;97595.69;5042222;28;20048;-64
2024/03/21 06:33:41;;;;;;;5.50;2.53;;;;;;;9.51;100.00;97601.97;5048862;28;20132;-64
2024/03/21 06:36:07;;;;;;;5.75;2.67;;;;;;;9.63;100.00;97610.06;5055284;28;20049;-64
2024/03/21 06:38:32;;;;;;;6.28;2.55;;;;;;;9.78;100.00;97614.13;5059486;28;20106;-64
2024/03/21 06:40:58;;;;;;;9.35;3.30;;;;;;;9.88;100.00;97598.91;5051272;28;20526;-64
2024/03/21 06:43:24;;;;;;;8.32;2.60;;;;;;;10.10;100.00;97609.03;5054154;28;20041;-64
2024/03/21 06:45:54;;;;;;;4.30;2.50;;;;;;;10.28;100.00;97615.31;5054445;28;20167;-65
2024/03/21 06:48:19;;;;;;;5.15;2.70;;;;;;;10.37;100.00;97621.16;5050967;28;20044;-64
2024/03/21 06:50:45;;;;;;;5.38;2.90;;;;;;;10.41;100.00;97617.72;5050943;28;20044;-65
2024/03/21 06:53:10;;;;;;;6.10;2.38;;;;;;;10.46;100.00;97627.81;5058699;28;20047;-64
2024/03/21 06:55:37;;;;;;;5.55;2.80;;;;;;;10.54;100.00;97629.31;5059660;28;20565;-64
2024/03/21 06:58:03;;;;;;;5.30;2.42;;;;;;;10.58;100.00;97640.47;5058532;28;20043;-65
2024/03/21 07:00:30;;;;;;;7.82;2.75;;;;;;;10.67;100.00;97641.72;5060421;28;20045;-65
2024/03/21 07:02:55;;;;;;;4.30;2.47;;;;;;;10.72;100.00;97636.38;5059538;28;20068;-64
2024/03/21 07:05:24;;;;;;;4.78;2.30;;;;;;;10.82;100.00;97643.00;5060359;28;20487;-64
2024/03/21 07:07:57;;;;;;;4.95;2.55;;;;;;;10.90;100.00;97651.56;5066108;28;21994;-64
2024/03/21 07:10:23;;;;;;;5.57;2.40;;;;;;;10.95;100.00;97648.13;5057449;28;20040;-64
2024/03/21 07:12:49;;;;;;;6.65;2.40;;;;;;;10.98;100.00;97639.47;5056510;28;20512;-65
2024/03/21 07:15:16;;;;;;;5.07;2.50;;;;;;;11.12;100.00;97653.50;5057141;28;20044;-65
2024/03/21 07:17:42;;;;;;;5.57;3.00;;;;;;;11.25;100.00;97657.78;5054320;28;20082;-65
2024/03/21 07:20:10;;;;;;;5.15;3.10;;;;;;;11.34;100.00;97660.03;5059013;28;20105;-64
2024/03/21 07:22:37;;;;;;;6.05;3.20;;;;;;;11.41;100.00;97664.22;5054910;28;20045;-65
2024/03/21 07:25:04;;;;;;;7.90;2.85;;;;;;;11.39;100.00;97665.53;5056376;28;20051;-64
2024/03/21 07:27:30;;;;;;;5.35;2.58;;;;;;;11.49;100.00;97660.25;5056927;28;20043;-65
2024/03/21 07:29:56;;;;;;;6.38;3.05;;;;;;;11.57;100.00;97654.38;5062405;28;20957;-65
2024/03/21 07:32:21;;;;;;;7.63;2.67;;;;;;;11.64;100.00;97654.19;5052628;28;20127;-64
2024/03/21 07:34:50;;;;;;;6.78;2.72;;;;;;;11.86;100.00;97660.72;5062041;28;20049;-65
2024/03/21 07:37:15;;;;;;;4.35;2.58;;;;;;;11.99;100.00;97675.78;5055886;28;20667;-65
2024/03/21 07:39:41;;;;;;;5.15;2.50;;;;;;;12.13;100.00;97674.34;5054590;28;20044;-65
2024/03/21 07:42:07;;;;;;;7.72;2.40;;;;;;;12.28;100.00;97686.44;5052810;28;20045;-64
2024/03/21 07:44:32;;;;;;;4.85;2.40;;;;;;;12.43;100.00;97683.06;5053523;28;20075;-64
2024/03/21 07:46:58;;;;;;;5.78;2.50;;;;;;;12.63;100.00;97682.44;5055448;28;20045;-60
2024/03/21 07:49:24;;;;;;;4.43;2.67;;;;;;;12.69;100.00;97680.59;5061198;28;20040;-59
2024/03/21 07:51:50;;;;;;;5.43;2.67;;;;;;;12.69;100.00;97675.16;5052178;28;20044;-60
2024/03/21 07:54:16;;;;;;;6.50;2.35;;;;;;;12.65;100.00;97685.72;5070012;28;20706;-58
2024/03/21 07:56:42;;;;;;;7.97;2.97;;;;;;;12.74;100.00;97683.34;5055500;28;20097;-60
2024/03/21 07:59:07;;;;;;;8.15;2.83;;;;;;;12.78;100.00;97684.47;5070300;28;20673;-56
2024/03/21 08:01:33;;;;;;;6.13;2.90;;;;;;;12.90;100.00;97687.00;5052981;28;20621;-54
2024/03/21 08:04:03;;;;;;;5.57;2.58;;;;;;;12.93;100.00;97693.84;5052122;28;20068;-53
2024/03/21 08:06:29;;;;;;;5.88;2.70;;;;;;;12.98;100.00;97693.88;5060637;28;20056;-58
2024/03/21 08:08:55;;;;;;;4.95;2.95;;;;;;;12.96;100.00;97699.56;5054420;28;21428;-56
2024/03/21 08:11:20;;;;;;;7.03;3.13;;;;;;;13.03;100.00;97698.50;5064396;28;20044;-56
2024/03/21 08:13:46;;;;;;;7.30;3.00;;;;;;;12.91;100.00;97701.41;5058359;28;20044;-54
2024/03/21 08:16:12;;;;;;;4.97;3.00;;;;;;;12.85;100.00;97697.81;5057949;28;20534;-56
2024/03/21 08:18:37;;;;;;;8.10;2.80;;;;;;;12.85;100.00;97705.97;5065726;28;20036;-58
2024/03/21 08:21:04;;;;;;;5.50;3.25;;;;;;;12.79;100.00;97704.31;5062710;28;20641;-58
2024/03/21 08:23:30;;;;;;;6.78;3.03;;;;;;;12.72;100.00;97712.69;5057161;28;20089;-56
2024/03/21 08:26:01;;;;;;;6.55;2.95;;;;;;;12.69;100.00;97726.78;5049458;28;20033;-57
2024/03/21 08:28:27;;;;;;;8.02;3.28;;;;;;;12.62;100.00;97732.41;5058297;28;20044;-57
2024/03/21 08:30:53;;;;;;;6.30;3.30;;;;;;;12.64;100.00;97732.16;5050178;28;20083;-56
2024/03/21 08:33:18;;;;;;;7.53;3.63;;;;;;;12.56;100.00;97745.13;5053414;28;20110;-57
2024/03/21 08:35:44;;;;;;;6.32;3.17;;;;;;;12.50;100.00;97732.56;5062429;28;20756;-60
2024/03/21 08:38:10;;;;;;;6.70;3.38;;;;;;;12.60;100.00;97742.69;5060286;28;20415;-60
2024/03/21 08:40:36;;;;;;;5.85;2.97;;;;;;;12.58;100.00;97753.00;5055360;28;20053;-60
2024/03/21 08:43:02;;;;;;;5.25;3.00;;;;;;;12.63;100.00;97746.81;5056748;28;20478;-60
2024/03/21 08:45:28;;;;;;;5.13;3.08;;;;;;;12.86;100.00;97756.53;5064464;28;20053;-59
2024/03/21 08:47:53;;;;;;;5.78;3.53;;;;;;;13.19;100.00;97756.56;5057132;28;20114;-59
2024/03/21 08:50:20;;;;;;;8.32;3.47;;;;;;;13.48;100.00;97758.97;5054205;28;20127;-60
2024/03/21 08:52:45;;;;;;;6.43;3.03;;;;;;;13.64;100.00;97760.72;5043296;28;20084;-60
2024/03/21 08:55:11;;;;;;;7.18;3.35;;;;;;;13.66;100.00;97760.44;5059002;28;20033;-59
2024/03/21 08:57:37;;;;;;;8.55;3.42;;;;;;;13.85;100.00;97766.28;5051171;28;20591;-60
2024/03/21 09:00:06;;;;;;;6.35;3.33;;;;;;;13.91;100.00;97767.97;5052585;28;20488;-58
2024/03/21 09:02:33;;;;;;;7.00;3.70;;;;;;;13.77;100.00;97766.78;5052372;28;20040;-59
2024/03/21 09:04:58;;;;;;;6.95;3.40;;;;;;;13.79;100.00;97767.34;5051291;28;20037;-59
2024/03/21 09:07:24;;;;;;;5.43;3.15;;;;;;;13.92;100.00;97763.31;5051159;28;20048;-58
2024/03/21 09:09:49;;;;;;;7.47;3.63;;;;;;;13.83;100.00;97765.75;5063469;28;20089;-60
2024/03/21 09:12:15;;;;;;;7.93;3.35;;;;;;;13.91;100.00;97767.97;5056449;28;20044;-60
2024/03/21 09:14:41;;;;;;;6.78;3.90;;;;;;;14.05;100.00;97772.94;5054445;28;20048;-60
2024/03/21 09:17:06;;;;;;;8.35;4.32;;;;;;;13.89;100.00;97769.28;5055961;28;20086;-59
2024/03/21 09:19:32;;;;;;;6.78;3.65;;;;;;;13.79;100.00;97770.88;5062731;28;20029;-60
2024/03/21 09:21:57;;;;;;;7.28;4.28;;;;;;;13.79;100.00;97770.88;5054915;28;20757;-59
2024/03/21 09:24:23;;;;;;;6.97;3.80;;;;;;;13.82;100.00;97766.78;5056119;28;20124;-60
2024/03/21 09:26:49;;;;;;;8.10;3.65;;;;;;;13.82;100.00;97760.56;5052754;28;20115;-58
2024/03/21 09:29:14;;;;;;;7.63;4.50;;;;;;;13.89;100.00;97772.00;5047623;28;20162;-59
2024/03/21 09:31:40;;;;;;;7.40;3.90;;;;;;;14.09;100.00;97770.47;5052002;28;20105;-59
2024/03/21 09:34:05;;;;;;;8.40;4.15;;;;;;;14.38;100.00;97775.50;5059333;28;20049;-59
2024/03/21 09:36:31;;;;;;;8.15;3.88;;;;;;;14.87;100.00;97782.47;5054961;28;20059;-59
2024/03/21 09:38:57;;;;;;;6.22;3.92;;;;;;;14.83;100.00;97789.56;5053777;28;20048;-58
2024/03/21 09:41:24;;;;;;;7.30;3.78;;;;;;;14.87;100.00;97787.09;5047944;28;20072;-59
2024/03/21 09:43:50;;;;;;;7.55;3.75;;;;;;;14.96;100.00;97793.66;5048704;28;20042;-59
2024/03/21 09:46:17;;;;;;;10.65;4.38;;;;;;;14.66;100.00;97798.75;5063770;28;20090;-58
2024/03/21 09:48:44;;;;;;;7.75;4.60;;;;;;;14.45;100.00;97800.59;5052151;28;20060;-57
2024/03/21 09:51:20;;;;;;;10.60;4.45;;;;;;;14.44;100.00;97804.41;5051383;28;20446;-56
2024/03/21 09:53:46;;;;;;;6.43;3.78;;;;;;;14.61;100.00;97811.53;5050482;28;20084;-57
2024/03/21 09:56:14;;;;;;;7.18;3.92;;;;;;;14.64;100.00;97814.56;5056769;28;20098;-57
2024/03/21 09:58:40;;;;;;;8.13;4.30;;;;;;;14.68;100.00;97815.63;5056199;28;20055;-58
2024/03/21 10:01:23;;;;;;;8.88;4.68;;;;;;;14.98;100.00;97824.22;5051895;28;20041;-58
2024/03/21 10:03:58;;;;;;;8.35;4.72;;;;;;;15.13;100.00;97812.50;5048872;28;20186;-58
2024/03/21 10:06:24;;;;;;;8.82;4.95;;;;;;;15.50;100.00;97823.44;5052716;28;20051;-58
2024/03/21 10:08:51;;;;;;;8.77;4.85;;;;;;;15.33;100.00;97824.50;5055241;28;20693;-56
2024/03/21 10:11:19;;;;;;;8.20;4.95;;;;;;;14.59;100.00;97824.63;5056666;28;20041;-57
2024/03/21 10:13:45;;;;;;;10.43;5.22;;;;;;;14.81;100.00;97825.25;5049788;28;20044;-58
2024/03/21 10:16:13;;;;;;;9.13;4.93;;;;;;;15.12;100.00;97820.97;5056548;28;20086;-58
2024/03/21 10:18:42;;;;;;;8.43;4.78;;;;;;;15.29;100.00;97826.19;5059126;28;20052;-57
2024/03/21 10:21:16;;;;;;;11.32;6.22;;;;;;;15.11;100.00;97827.50;5051280;28;20040;-59
2024/03/21 10:23:42;;;;;;;16.30;7.25;;;;;;;15.24;100.00;97826.97;5047666;28;20087;-55
2024/03/21 10:26:14;;;;;;;8.32;5.32;;;;;;;14.88;100.00;97825.00;5045273;28;20044;-58
2024/03/21 10:28:44;;;;;;;12.63;5.82;;;;;;;14.81;100.00;97822.53;5043680;28;20056;-58
2024/03/21 10:31:14;;;;;;;9.45;6.38;;;;;;;15.02;100.00;97828.03;5056082;28;20126;-56
2024/03/21 10:33:43;;;;;;;11.38;5.57;;;;;;;15.21;100.00;97827.50;5056729;28;20098;-57
2024/03/21 10:36:13;;;;;;;11.30;5.82;;;;;;;15.25;100.00;97833.25;5053077;28;20052;-58
2024/03/21 10:38:39;;;;;;;11.10;5.13;;;;;;;15.18;100.00;97830.78;5054020;28;20106;-58
2024/03/21 10:41:24;;;;;;;8.50;6.13;;;;;;;15.11;100.00;97835.69;5051528;28;20048;-61
2024/03/21 10:43:58;;;;;;;13.40;6.30;;;;;;;15.25;100.00;97830.53;5048575;28;20102;-58
2024/03/21 10:46:24;;;;;;;9.25;5.75;;;;;;;15.14;100.00;97838.69;5052289;28;20074;-58
2024/03/21 10:48:50;;;;;;;14.55;6.72;;;;;;;15.32;100.00;97839.25;5043869;28;20045;-58
2024/03/21 10:51:20;;;;;;;12.55;6.68;;;;;;;15.14;100.00;97846.06;5062131;28;22300;-57
2024/03/21 10:53:55;;;;;;;9.57;6.53;;;;;;;15.07;100.00;97840.84;5042209;28;20044;-57
2024/03/21 10:56:38;;;;;;;9.48;7.10;;;;;;;14.68;100.00;97834.72;5053396;28;20086;-65
2024/03/21 10:59:04;;;;;;;12.30;8.45;;;;;;;14.26;100.00;97835.66;5052708;28;20212;-65
2024/03/21 11:01:38;;;;;;;12.85;7.35;;;;;;;14.57;100.00;97836.59;5047645;28;20827;-64
2024/03/21 11:04:12;;;;;;;12.05;7.28;;;;;;;14.94;100.00;97843.03;5051844;28;21253;-65
2024/03/21 11:06:40;;;;;;;9.35;7.22;;;;;;;15.37;100.00;97844.69;5045324;28;20037;-65
2024/03/21 11:09:07;;;;;;;10.65;6.95;;;;;;;15.69;100.00;97845.53;5049260;28;20566;-64
2024/03/21 11:11:33;;;;;;;10.65;6.95;;;;;;;16.27;100.00;97843.56;5048098;28;20049;-64
2024/03/21 11:14:03;;;;;;;13.68;8.05;;;;;;;16.05;100.00;97848.25;5048145;28;20048;-64
2024/03/21 11:16:30;;;;;;;12.85;8.23;;;;;;;16.04;100.00;97843.91;5054141;28;20063;-65
2024/03/21 11:18:56;;;;;;;14.05;9.13;;;;;;;16.07;100.00;97840.59;5053525;28;20508;-65
2024/03/21 11:21:22;;;;;;;15.30;9.45;;;;;;;15.90;100.00;97846.34;5052759;28;20048;-64
2024/03/21 11:23:48;;;;;;;12.30;8.02;;;;;;;16.19;100.00;97845.78;5061875;28;20032;-65
2024/03/21 11:26:16;;;;;;;12.48;8.40;;;;;;;16.08;100.00;97844.16;5054338;28;20052;-65
2024/03/21 11:28:45;;;;;;;13.35;8.75;;;;;;;16.37;100.00;97840.81;5046330;28;20099;-65